createdAt,value
2017-12-31T00:00:21.617Z,1001.75
2017-12-31T00:00:47.197Z,1001.76
2017-12-31T00:01:12.734Z,1001.82
2017-12-31T00:01:38.346Z,1001.81
2017-12-31T00:02:03.930Z,1001.73
2017-12-31T00:02:29.499Z,1001.77
2017-12-31T00:02:55.043Z,1001.78
2017-12-31T00:03:20.617Z,1001.81
2017-12-31T00:03:46.137Z,1001.8
2017-12-31T00:04:11.719Z,1001.82
2017-12-31T00:04:37.432Z,1001.81
2017-12-31T00:05:02.982Z,1001.87
2017-12-31T00:05:28.536Z,1001.88
2017-12-31T00:05:54.098Z,1001.85
2017-12-31T00:06:19.675Z,1001.85
2017-12-31T00:06:45.241Z,1001.9
2017-12-31T00:07:10.863Z,1001.85
2017-12-31T00:07:36.413Z,1001.93
2017-12-31T00:08:01.962Z,1001.83
2017-12-31T00:08:27.626Z,1001.84
2017-12-31T00:08:53.191Z,1001.86
2017-12-31T00:09:18.763Z,1001.88
2017-12-31T00:09:44.344Z,1001.87
2017-12-31T00:10:09.882Z,1001.84
2017-12-31T00:10:35.433Z,1001.81
2017-12-31T00:11:01.077Z,1001.86
2017-12-31T00:11:26.629Z,1001.89
2017-12-31T00:11:52.170Z,1001.87
2017-12-31T00:12:17.753Z,1001.86
2017-12-31T00:12:43.316Z,1001.89
2017-12-31T00:13:08.908Z,1001.9
2017-12-31T00:13:34.502Z,1001.91
2017-12-31T00:14:00.084Z,1001.9
2017-12-31T00:14:25.622Z,1001.93
2017-12-31T00:14:51.225Z,1001.92
2017-12-31T00:15:16.893Z,1001.94
2017-12-31T00:15:42.479Z,1002.01
2017-12-31T00:16:08.053Z,1001.99
2017-12-31T00:16:33.611Z,1002
2017-12-31T00:16:59.179Z,1002.03
2017-12-31T00:17:24.818Z,1002.04
2017-12-31T00:17:50.409Z,1002.06
2017-12-31T00:18:15.982Z,1002.03
2017-12-31T00:18:41.586Z,1001.98
2017-12-31T00:19:07.174Z,1001.95
2017-12-31T00:19:32.721Z,1001.98
2017-12-31T00:19:58.287Z,1001.92
2017-12-31T00:20:23.867Z,1001.96
2017-12-31T00:20:49.415Z,1002
2017-12-31T00:21:15.027Z,1002.05
2017-12-31T00:21:40.581Z,1002
2017-12-31T00:22:06.116Z,1001.98
2017-12-31T00:22:31.683Z,1002
2017-12-31T00:22:57.309Z,1001.95
2017-12-31T00:23:22.842Z,1001.99
2017-12-31T00:23:48.960Z,1001.97
2017-12-31T00:24:14.624Z,1002.03
2017-12-31T00:24:40.223Z,1002.01
2017-12-31T00:25:05.806Z,1002.04
2017-12-31T00:25:31.434Z,1002.04
2017-12-31T00:25:56.986Z,1002.03
2017-12-31T00:26:22.554Z,1002.03
2017-12-31T00:26:48.219Z,1002.07
2017-12-31T00:27:13.864Z,1002.08
2017-12-31T00:27:39.436Z,1002.08
2017-12-31T00:28:05.011Z,1002.1
2017-12-31T00:28:30.598Z,1002.03
2017-12-31T00:28:56.192Z,1002.05
2017-12-31T00:29:21.736Z,1002.06
2017-12-31T00:29:47.332Z,1002.06
2017-12-31T00:30:12.892Z,1002.04
2017-12-31T00:30:38.442Z,1002.09
2017-12-31T00:31:03.998Z,1002.16
2017-12-31T00:31:29.587Z,1002.14
2017-12-31T00:31:55.155Z,1002.1
2017-12-31T00:32:20.725Z,1002.14
2017-12-31T00:32:46.273Z,1002.13
2017-12-31T00:33:11.857Z,1002.17
2017-12-31T00:33:37.464Z,1002.11
2017-12-31T00:34:03.048Z,1002.18
2017-12-31T00:34:28.606Z,1002.13
2017-12-31T00:34:54.252Z,1002.14
2017-12-31T00:35:19.826Z,1002.09
2017-12-31T00:35:45.390Z,1002.09
2017-12-31T00:36:10.950Z,1002.12
2017-12-31T00:36:36.531Z,1002.14
2017-12-31T00:37:02.084Z,1002.14
2017-12-31T00:37:27.655Z,1002.13
2017-12-31T00:37:53.212Z,1002.17
2017-12-31T00:38:18.808Z,1002.14
2017-12-31T00:38:44.356Z,1002.13
2017-12-31T00:39:09.943Z,1002.15
2017-12-31T00:39:35.523Z,1002.12
2017-12-31T00:40:01.117Z,1002.13
2017-12-31T00:40:26.721Z,1002.14
2017-12-31T00:40:52.279Z,1002.07
2017-12-31T00:41:17.862Z,1002.07
2017-12-31T00:41:43.483Z,1002.05
2017-12-31T00:42:09.053Z,1002.06
2017-12-31T00:42:34.636Z,1002.04
2017-12-31T00:43:00.213Z,1002.03
2017-12-31T00:43:25.786Z,1002.03
2017-12-31T00:43:51.356Z,1002.04
2017-12-31T00:44:16.983Z,1002.04
2017-12-31T00:44:42.535Z,1002.02
2017-12-31T00:45:08.081Z,1002.05
2017-12-31T00:45:33.699Z,1002.02
2017-12-31T00:45:59.263Z,1002.05
2017-12-31T00:46:24.813Z,1002.09
2017-12-31T00:46:50.395Z,1002.14
2017-12-31T00:47:15.974Z,1002.14
2017-12-31T00:47:41.533Z,1002.15
2017-12-31T00:48:07.112Z,1002.13
2017-12-31T00:48:32.678Z,1002.18
2017-12-31T00:48:58.239Z,1002.14
2017-12-31T00:49:23.820Z,1002.16
2017-12-31T00:49:49.373Z,1002.15
2017-12-31T00:50:14.945Z,1002.14
2017-12-31T00:50:40.565Z,1002.17
2017-12-31T00:51:06.125Z,1002.14
2017-12-31T00:51:31.710Z,1002.14
2017-12-31T00:51:57.276Z,1002.14
2017-12-31T00:52:22.839Z,1002.13
2017-12-31T00:52:48.403Z,1002.17
2017-12-31T00:53:14.064Z,1002.19
2017-12-31T00:53:39.682Z,1002.18
2017-12-31T00:54:05.246Z,1002.21
2017-12-31T00:54:30.808Z,1002.17
2017-12-31T00:54:56.385Z,1002.21
2017-12-31T00:55:21.951Z,1002.15
2017-12-31T00:55:47.502Z,1002.17
2017-12-31T00:56:13.084Z,1002.13
2017-12-31T00:56:38.642Z,1002.15
2017-12-31T00:57:04.254Z,1002.12
2017-12-31T00:57:29.855Z,1002.11
2017-12-31T00:57:55.412Z,1002.11
2017-12-31T00:58:20.964Z,1002.13
2017-12-31T00:58:46.502Z,1002.12
2017-12-31T00:59:12.095Z,1002.07
2017-12-31T00:59:37.703Z,1002.11
2017-12-31T01:00:03.276Z,1002.13
2017-12-31T01:00:28.805Z,1002.15
2017-12-31T01:00:54.367Z,1002.11
2017-12-31T01:01:20.003Z,1002.11
2017-12-31T01:01:45.566Z,1002.1
2017-12-31T01:02:11.119Z,1002.13
2017-12-31T01:02:36.682Z,1002.14
2017-12-31T01:03:02.236Z,1002.12
2017-12-31T01:03:27.790Z,1002.17
2017-12-31T01:03:53.480Z,1002.13
2017-12-31T01:04:19.064Z,1002.07
2017-12-31T01:04:44.691Z,1002.13
2017-12-31T01:05:10.253Z,1002.09
2017-12-31T01:05:35.818Z,1002.07
2017-12-31T01:06:01.380Z,1002.12
2017-12-31T01:06:26.926Z,1002.16
2017-12-31T01:06:52.502Z,1002.17
2017-12-31T01:07:18.053Z,1002.13
2017-12-31T01:07:43.750Z,1002.17
2017-12-31T01:08:09.334Z,1002.12
2017-12-31T01:08:34.881Z,1002.13
2017-12-31T01:09:00.462Z,1002.14
2017-12-31T01:09:26.054Z,1002.14
2017-12-31T01:09:51.615Z,1002.17
2017-12-31T01:10:17.206Z,1002.17
2017-12-31T01:10:42.780Z,1002.16
2017-12-31T01:11:08.365Z,1002.19
2017-12-31T01:11:33.916Z,1002.14
2017-12-31T01:11:59.498Z,1002.19
2017-12-31T01:12:25.109Z,1002.2
2017-12-31T01:12:50.628Z,1002.23
2017-12-31T01:13:16.181Z,1002.2
2017-12-31T01:13:41.739Z,1002.19
2017-12-31T01:14:07.287Z,1002.17
2017-12-31T01:14:32.964Z,1002.16
2017-12-31T01:14:58.604Z,1002.18
2017-12-31T01:15:24.171Z,1002.19
2017-12-31T01:15:49.751Z,1002.18
2017-12-31T01:16:15.287Z,1002.18
2017-12-31T01:16:40.842Z,1002.19
2017-12-31T01:17:06.399Z,1002.2
2017-12-31T01:17:31.994Z,1002.18
2017-12-31T01:17:57.566Z,1002.16
2017-12-31T01:18:23.134Z,1002.14
2017-12-31T01:18:48.702Z,1002.18
2017-12-31T01:19:14.266Z,1002.11
2017-12-31T01:19:39.836Z,1002.12
2017-12-31T01:20:05.405Z,1002.13
2017-12-31T01:20:31.003Z,1002.18
2017-12-31T01:20:56.636Z,1002.15
2017-12-31T01:21:22.251Z,1002.11
2017-12-31T01:21:47.800Z,1002.11
2017-12-31T01:22:13.364Z,1002.08
2017-12-31T01:22:38.907Z,1002.1
2017-12-31T01:23:04.464Z,1002.11
2017-12-31T01:23:30.019Z,1002.05
2017-12-31T01:23:55.580Z,1002.05
2017-12-31T01:24:21.154Z,1002.06
2017-12-31T01:24:46.775Z,1002.09
2017-12-31T01:25:12.342Z,1002.11
2017-12-31T01:25:37.927Z,1002.11
2017-12-31T01:26:03.488Z,1002.1
2017-12-31T01:26:29.069Z,1002.09
2017-12-31T01:26:54.637Z,1002.12
2017-12-31T01:27:20.277Z,1002.11
2017-12-31T01:27:45.813Z,1002.15
2017-12-31T01:28:11.371Z,1002.14
2017-12-31T01:28:36.967Z,1002.19
2017-12-31T01:29:02.598Z,1002.17
2017-12-31T01:29:28.146Z,1002.21
2017-12-31T01:29:53.783Z,1002.21
2017-12-31T01:30:19.425Z,1002.21
2017-12-31T01:30:44.979Z,1002.21
2017-12-31T01:31:10.543Z,1002.19
2017-12-31T01:31:36.093Z,1002.22
2017-12-31T01:32:01.657Z,1002.17
2017-12-31T01:32:27.245Z,1002.21
2017-12-31T01:32:52.812Z,1002.2
2017-12-31T01:33:18.371Z,1002.2
2017-12-31T01:33:43.961Z,1002.16
2017-12-31T01:34:09.595Z,1002.17
2017-12-31T01:34:35.152Z,1002.18
2017-12-31T01:35:00.720Z,1002.14
2017-12-31T01:35:26.291Z,1002.17
2017-12-31T01:35:51.849Z,1002.18
2017-12-31T01:36:17.450Z,1002.18
2017-12-31T01:36:42.995Z,1002.22
2017-12-31T01:37:08.612Z,1002.27
2017-12-31T01:37:34.206Z,1002.24
2017-12-31T01:37:59.717Z,1002.24
2017-12-31T01:38:25.283Z,1002.23
2017-12-31T01:38:50.844Z,1002.24
2017-12-31T01:39:16.412Z,1002.2
2017-12-31T01:39:41.966Z,1002.24
2017-12-31T01:40:07.567Z,1002.19
2017-12-31T01:40:33.138Z,1002.22
2017-12-31T01:40:58.710Z,1002.26
2017-12-31T01:41:24.250Z,1002.26
2017-12-31T01:41:49.803Z,1002.28
2017-12-31T01:42:15.364Z,1002.27
2017-12-31T01:42:40.921Z,1002.28
2017-12-31T01:43:06.495Z,1002.25
2017-12-31T01:43:32.045Z,1002.3
2017-12-31T01:43:57.663Z,1002.28
2017-12-31T01:44:23.269Z,1002.27
2017-12-31T01:44:49.020Z,1002.26
2017-12-31T01:45:14.566Z,1002.25
2017-12-31T01:45:40.144Z,1002.21
2017-12-31T01:46:05.710Z,1002.19
2017-12-31T01:46:31.354Z,1002.18
2017-12-31T01:46:56.970Z,1002.18
2017-12-31T01:47:22.556Z,1002.19
2017-12-31T01:47:48.114Z,1002.15
2017-12-31T01:48:13.713Z,1002.15
2017-12-31T01:48:39.284Z,1002.12
2017-12-31T01:49:04.927Z,1002.13
2017-12-31T01:49:30.544Z,1002.18
2017-12-31T01:49:56.072Z,1002.19
2017-12-31T01:50:21.637Z,1002.25
2017-12-31T01:50:47.170Z,1002.27
2017-12-31T01:51:12.741Z,1002.3
2017-12-31T01:51:38.292Z,1002.29
2017-12-31T01:52:03.845Z,1002.32
2017-12-31T01:52:29.416Z,1002.29
2017-12-31T01:52:54.981Z,1002.3
2017-12-31T01:53:20.540Z,1002.28
2017-12-31T01:53:46.147Z,1002.3
2017-12-31T01:54:11.682Z,1002.28
2017-12-31T01:54:37.229Z,1002.32
2017-12-31T01:55:02.817Z,1002.29
2017-12-31T01:55:28.423Z,1002.29
2017-12-31T01:55:53.996Z,1002.29
2017-12-31T01:56:19.598Z,1002.28
2017-12-31T01:56:45.140Z,1002.3
2017-12-31T01:57:10.732Z,1002.25
2017-12-31T01:57:36.308Z,1002.23
2017-12-31T01:58:01.875Z,1002.21
2017-12-31T01:58:27.432Z,1002.18
2017-12-31T01:58:53.052Z,1002.22
2017-12-31T01:59:18.631Z,1002.18
2017-12-31T01:59:44.179Z,1002.19
2017-12-31T02:00:09.737Z,1002.2
2017-12-31T02:00:35.293Z,1002.2
2017-12-31T02:01:00.857Z,1002.26
2017-12-31T02:01:26.497Z,1002.27
2017-12-31T02:01:52.060Z,1002.29
2017-12-31T02:02:17.635Z,1002.29
2017-12-31T02:02:43.292Z,1002.3
2017-12-31T02:03:08.868Z,1002.34
2017-12-31T02:03:34.432Z,1002.32
2017-12-31T02:04:00.009Z,1002.36
2017-12-31T02:04:25.605Z,1002.32
2017-12-31T02:04:51.183Z,1002.36
2017-12-31T02:05:16.775Z,1002.32
2017-12-31T02:05:42.335Z,1002.32
2017-12-31T02:06:07.901Z,1002.33
2017-12-31T02:06:33.453Z,1002.32
2017-12-31T02:06:59.073Z,1002.35
2017-12-31T02:07:24.595Z,1002.32
2017-12-31T02:07:50.139Z,1002.33
2017-12-31T02:08:15.800Z,1002.36
2017-12-31T02:08:41.398Z,1002.39
2017-12-31T02:09:06.993Z,1002.38
2017-12-31T02:09:32.548Z,1002.38
2017-12-31T02:09:58.141Z,1002.42
2017-12-31T02:10:23.715Z,1002.41
2017-12-31T02:10:49.319Z,1002.4
2017-12-31T02:11:14.886Z,1002.43
2017-12-31T02:11:40.461Z,1002.46
2017-12-31T02:12:06.027Z,1002.47
2017-12-31T02:12:31.586Z,1002.47
2017-12-31T02:12:57.136Z,1002.45
2017-12-31T02:13:22.719Z,1002.41
2017-12-31T02:13:48.273Z,1002.39
2017-12-31T02:14:13.830Z,1002.4
2017-12-31T02:14:39.394Z,1002.37
2017-12-31T02:15:04.947Z,1002.36
2017-12-31T02:15:30.499Z,1002.33
2017-12-31T02:15:56.088Z,1002.35
2017-12-31T02:16:21.655Z,1002.33
2017-12-31T02:16:47.219Z,1002.35
2017-12-31T02:17:12.820Z,1002.33
2017-12-31T02:17:38.558Z,1002.35
2017-12-31T02:18:04.131Z,1002.35
2017-12-31T02:18:29.698Z,1002.4
2017-12-31T02:18:55.261Z,1002.35
2017-12-31T02:19:20.834Z,1002.38
2017-12-31T02:19:46.413Z,1002.38
2017-12-31T02:20:11.947Z,1002.37
2017-12-31T02:20:37.510Z,1002.39
2017-12-31T02:21:03.075Z,1002.45
2017-12-31T02:21:28.731Z,1002.37
2017-12-31T02:21:54.277Z,1002.34
2017-12-31T02:22:19.856Z,1002.36
2017-12-31T02:22:45.455Z,1002.37
2017-12-31T02:23:11.003Z,1002.32
2017-12-31T02:23:36.573Z,1002.34
2017-12-31T02:24:02.151Z,1002.31
2017-12-31T02:24:27.709Z,1002.38
2017-12-31T02:24:53.278Z,1002.36
2017-12-31T02:25:18.864Z,1002.32
2017-12-31T02:25:44.472Z,1002.29
2017-12-31T02:26:10.040Z,1002.29
2017-12-31T02:26:35.643Z,1002.31
2017-12-31T02:27:01.216Z,1002.33
2017-12-31T02:27:26.782Z,1002.34
2017-12-31T02:27:52.343Z,1002.36
2017-12-31T02:28:17.886Z,1002.37
2017-12-31T02:28:43.460Z,1002.38
2017-12-31T02:29:09.101Z,1002.43
2017-12-31T02:29:34.690Z,1002.4
2017-12-31T02:30:00.224Z,1002.4
2017-12-31T02:30:25.854Z,1002.4
2017-12-31T02:30:51.428Z,1002.41
2017-12-31T02:31:17.005Z,1002.42
2017-12-31T02:31:42.592Z,1002.4
2017-12-31T02:32:08.237Z,1002.36
2017-12-31T02:32:33.782Z,1002.4
2017-12-31T02:32:59.341Z,1002.38
2017-12-31T02:33:24.892Z,1002.4
2017-12-31T02:33:50.477Z,1002.41
2017-12-31T02:34:16.064Z,1002.44
2017-12-31T02:34:41.648Z,1002.47
2017-12-31T02:35:07.256Z,1002.42
2017-12-31T02:35:32.809Z,1002.41
2017-12-31T02:35:58.391Z,1002.39
2017-12-31T02:36:23.948Z,1002.4
2017-12-31T02:36:49.497Z,1002.37
2017-12-31T02:37:15.085Z,1002.38
2017-12-31T02:37:40.645Z,1002.39
2017-12-31T02:38:06.214Z,1002.38
2017-12-31T02:38:31.823Z,1002.41
2017-12-31T02:38:57.419Z,1002.4
2017-12-31T02:39:22.984Z,1002.41
2017-12-31T02:39:48.552Z,1002.38
2017-12-31T02:40:14.100Z,1002.4
2017-12-31T02:40:39.666Z,1002.41
2017-12-31T02:41:05.223Z,1002.36
2017-12-31T02:41:30.805Z,1002.38
2017-12-31T02:41:56.478Z,1002.36
2017-12-31T02:42:22.006Z,1002.37
2017-12-31T02:42:47.577Z,1002.41
2017-12-31T02:43:13.124Z,1002.43
2017-12-31T02:43:38.706Z,1002.41
2017-12-31T02:44:04.272Z,1002.42
2017-12-31T02:44:29.840Z,1002.44
2017-12-31T02:44:55.438Z,1002.45
2017-12-31T02:45:21.088Z,1002.42
2017-12-31T02:45:46.654Z,1002.44
2017-12-31T02:46:12.231Z,1002.44
2017-12-31T02:46:37.797Z,1002.46
2017-12-31T02:47:03.389Z,1002.44
2017-12-31T02:47:28.946Z,1002.42
2017-12-31T02:47:54.501Z,1002.45
2017-12-31T02:48:20.059Z,1002.47
2017-12-31T02:48:45.622Z,1002.46
2017-12-31T02:49:11.153Z,1002.41
2017-12-31T02:49:36.698Z,1002.43
2017-12-31T02:50:02.248Z,1002.42
2017-12-31T02:50:27.821Z,1002.4
2017-12-31T02:50:53.389Z,1002.39
2017-12-31T02:51:18.942Z,1002.45
2017-12-31T02:51:44.495Z,1002.38
2017-12-31T02:52:10.063Z,1002.39
2017-12-31T02:52:35.644Z,1002.39
2017-12-31T02:53:01.203Z,1002.33
2017-12-31T02:53:26.874Z,1002.34
2017-12-31T02:53:52.431Z,1002.29
2017-12-31T02:54:17.978Z,1002.3
2017-12-31T02:54:43.557Z,1002.28
2017-12-31T02:55:09.215Z,1002.29
2017-12-31T02:55:34.922Z,1002.28
2017-12-31T02:56:00.493Z,1002.29
2017-12-31T02:56:26.048Z,1002.28
2017-12-31T02:56:51.697Z,1002.29
2017-12-31T02:57:17.240Z,1002.31
2017-12-31T02:57:42.808Z,1002.3
2017-12-31T02:58:08.337Z,1002.33
2017-12-31T02:58:33.905Z,1002.34
2017-12-31T02:58:59.484Z,1002.36
2017-12-31T02:59:25.137Z,1002.34
2017-12-31T02:59:50.688Z,1002.32
2017-12-31T03:00:16.264Z,1002.31
2017-12-31T03:00:41.814Z,1002.39
2017-12-31T03:01:07.374Z,1002.37
2017-12-31T03:01:32.921Z,1002.37
2017-12-31T03:01:58.467Z,1002.38
2017-12-31T03:02:24.037Z,1002.4
2017-12-31T03:02:49.627Z,1002.4
2017-12-31T03:03:15.330Z,1002.44
2017-12-31T03:03:40.895Z,1002.43
2017-12-31T03:04:06.464Z,1002.46
2017-12-31T03:04:32.085Z,1002.44
2017-12-31T03:04:57.705Z,1002.44
2017-12-31T03:05:23.275Z,1002.45
2017-12-31T03:05:48.871Z,1002.44
2017-12-31T03:06:14.442Z,1002.42
2017-12-31T03:06:40.000Z,1002.42
2017-12-31T03:07:05.604Z,1002.43
2017-12-31T03:07:31.150Z,1002.41
2017-12-31T03:07:56.707Z,1002.4
2017-12-31T03:08:22.285Z,1002.37
2017-12-31T03:08:47.894Z,1002.36
2017-12-31T03:09:13.439Z,1002.38
2017-12-31T03:09:38.994Z,1002.36
2017-12-31T03:10:04.666Z,1002.34
2017-12-31T03:10:30.233Z,1002.34
2017-12-31T03:10:55.785Z,1002.35
2017-12-31T03:11:21.381Z,1002.32
2017-12-31T03:11:46.927Z,1002.34
2017-12-31T03:12:12.474Z,1002.3
2017-12-31T03:12:38.061Z,1002.28
2017-12-31T03:13:03.576Z,1002.33
2017-12-31T03:13:29.221Z,1002.28
2017-12-31T03:13:54.830Z,1002.32
2017-12-31T03:14:20.381Z,1002.3
2017-12-31T03:14:46.033Z,1002.27
2017-12-31T03:15:11.559Z,1002.3
2017-12-31T03:15:37.124Z,1002.3
2017-12-31T03:16:02.680Z,1002.31
2017-12-31T03:16:28.247Z,1002.28
2017-12-31T03:16:53.813Z,1002.26
2017-12-31T03:17:19.352Z,1002.28
2017-12-31T03:17:44.922Z,1002.26
2017-12-31T03:18:10.618Z,1002.23
2017-12-31T03:18:36.167Z,1002.24
2017-12-31T03:19:01.711Z,1002.23
2017-12-31T03:19:27.283Z,1002.27
2017-12-31T03:19:52.867Z,1002.28
2017-12-31T03:20:18.424Z,1002.3
2017-12-31T03:20:44.049Z,1002.33
2017-12-31T03:21:09.664Z,1002.31
2017-12-31T03:21:35.223Z,1002.31
2017-12-31T03:22:00.786Z,1002.37
2017-12-31T03:22:26.341Z,1002.39
2017-12-31T03:22:51.905Z,1002.39
2017-12-31T03:23:17.470Z,1002.35
2017-12-31T03:23:43.026Z,1002.43
2017-12-31T03:24:08.633Z,1002.36
2017-12-31T03:24:34.271Z,1002.38
2017-12-31T03:24:59.842Z,1002.34
2017-12-31T03:25:25.421Z,1002.37
2017-12-31T03:25:50.968Z,1002.41
2017-12-31T03:26:16.530Z,1002.37
2017-12-31T03:26:42.114Z,1002.34
2017-12-31T03:27:07.756Z,1002.29
2017-12-31T03:27:33.351Z,1002.31
2017-12-31T03:27:58.921Z,1002.3
2017-12-31T03:28:24.474Z,1002.28
2017-12-31T03:28:50.039Z,1002.3
2017-12-31T03:29:15.603Z,1002.27
2017-12-31T03:29:41.237Z,1002.29
2017-12-31T03:30:06.827Z,1002.28
2017-12-31T03:30:32.417Z,1002.29
2017-12-31T03:30:57.993Z,1002.24
2017-12-31T03:31:23.542Z,1002.32
2017-12-31T03:31:49.108Z,1002.26
2017-12-31T03:32:14.693Z,1002.31
2017-12-31T03:33:18.764Z,1002.24
2017-12-31T03:33:44.351Z,1002.18
2017-12-31T03:34:09.883Z,1002.2
2017-12-31T03:34:35.489Z,1002.23
2017-12-31T03:35:01.036Z,1002.17
2017-12-31T03:35:26.649Z,1002.24
2017-12-31T03:35:52.207Z,1002.16
2017-12-31T03:36:17.767Z,1002.18
2017-12-31T03:36:43.339Z,1002.18
2017-12-31T03:37:08.893Z,1002.18
2017-12-31T03:37:34.496Z,1002.19
2017-12-31T03:38:00.107Z,1002.18
2017-12-31T03:38:25.704Z,1002.2
2017-12-31T03:38:51.256Z,1002.17
2017-12-31T03:39:16.811Z,1002.18
2017-12-31T03:39:42.369Z,1002.13
2017-12-31T03:40:07.943Z,1002.16
2017-12-31T03:40:33.495Z,1002.15
2017-12-31T03:40:59.039Z,1002.13
2017-12-31T03:41:24.624Z,1002.1
2017-12-31T03:41:50.177Z,1002.11
2017-12-31T03:42:15.727Z,1002.1
2017-12-31T03:42:41.321Z,1002.09
2017-12-31T03:43:07.060Z,1002.1
2017-12-31T03:43:32.623Z,1002.09
2017-12-31T03:43:58.173Z,1002.12
2017-12-31T03:44:23.737Z,1002.1
2017-12-31T03:44:49.405Z,1002.08
2017-12-31T03:45:14.957Z,1002.07
2017-12-31T03:45:40.523Z,1002.04
2017-12-31T03:46:06.111Z,1002
2017-12-31T03:46:31.688Z,1002.03
2017-12-31T03:46:57.225Z,1002.03
2017-12-31T03:47:22.905Z,1001.97
2017-12-31T03:47:48.489Z,1002
2017-12-31T03:48:14.046Z,1001.98
2017-12-31T03:48:39.615Z,1001.97
2017-12-31T03:49:05.189Z,1001.99
2017-12-31T03:49:30.746Z,1001.95
2017-12-31T03:49:56.344Z,1001.96
2017-12-31T03:50:21.901Z,1001.94
2017-12-31T03:50:47.453Z,1001.94
2017-12-31T03:51:13.091Z,1001.9
2017-12-31T03:51:38.672Z,1001.9
2017-12-31T03:52:04.221Z,1001.93
2017-12-31T03:52:29.797Z,1001.93
2017-12-31T03:52:55.366Z,1001.89
2017-12-31T03:53:20.934Z,1001.88
2017-12-31T03:54:40.080Z,1001.86
2017-12-31T03:55:05.660Z,1001.85
2017-12-31T03:55:31.202Z,1001.91
2017-12-31T03:55:56.755Z,1001.88
2017-12-31T03:56:22.287Z,1001.88
2017-12-31T03:56:47.844Z,1001.87
2017-12-31T03:57:13.383Z,1001.87
2017-12-31T03:57:38.945Z,1001.89
2017-12-31T03:58:04.491Z,1001.91
2017-12-31T03:58:30.032Z,1001.91
2017-12-31T03:58:55.591Z,1001.85
2017-12-31T03:59:21.217Z,1001.88
2017-12-31T03:59:46.785Z,1001.91
2017-12-31T04:00:12.361Z,1001.88
2017-12-31T04:00:37.913Z,1001.89
2017-12-31T04:01:03.471Z,1001.89
2017-12-31T04:01:29.032Z,1001.91
2017-12-31T04:01:54.592Z,1001.92
2017-12-31T04:02:20.171Z,1001.93
2017-12-31T04:02:45.730Z,1001.96
2017-12-31T04:03:11.297Z,1001.95
2017-12-31T04:03:36.838Z,1001.92
2017-12-31T04:04:02.407Z,1001.98
2017-12-31T04:04:27.967Z,1001.97
2017-12-31T04:04:53.605Z,1001.94
2017-12-31T04:05:19.155Z,1001.92
2017-12-31T04:05:44.726Z,1001.98
2017-12-31T04:06:10.298Z,1001.92
2017-12-31T04:06:35.870Z,1001.95
2017-12-31T04:07:01.408Z,1001.93
2017-12-31T04:07:26.978Z,1001.92
2017-12-31T04:07:52.531Z,1001.91
2017-12-31T04:08:18.069Z,1001.88
2017-12-31T04:08:43.633Z,1001.88
2017-12-31T04:09:09.177Z,1001.88
2017-12-31T04:09:34.746Z,1001.95
2017-12-31T04:10:00.302Z,1002.01
2017-12-31T04:10:25.904Z,1002.02
2017-12-31T04:10:51.526Z,1002.03
2017-12-31T04:11:17.067Z,1002.01
2017-12-31T04:11:42.716Z,1002.01
2017-12-31T04:12:08.279Z,1002.05
2017-12-31T04:12:33.844Z,1002.02
2017-12-31T04:12:59.396Z,1002.01
2017-12-31T04:13:24.988Z,1002.01
2017-12-31T04:13:50.516Z,1001.99
2017-12-31T04:14:16.129Z,1001.97
2017-12-31T04:14:41.827Z,1001.98
2017-12-31T04:15:07.411Z,1001.94
2017-12-31T04:15:32.974Z,1001.98
2017-12-31T04:15:58.536Z,1001.93
2017-12-31T04:16:24.063Z,1001.87
2017-12-31T04:16:49.643Z,1001.9
2017-12-31T04:17:15.187Z,1001.88
2017-12-31T04:17:40.865Z,1001.85
2017-12-31T04:18:06.406Z,1001.88
2017-12-31T04:18:31.957Z,1001.78
2017-12-31T04:18:57.511Z,1001.84
2017-12-31T04:19:23.062Z,1001.83
2017-12-31T04:19:48.665Z,1001.76
2017-12-31T04:20:14.221Z,1001.76
2017-12-31T04:20:39.809Z,1001.73
2017-12-31T04:21:05.370Z,1001.73
2017-12-31T04:21:30.932Z,1001.75
2017-12-31T04:21:56.493Z,1001.75
2017-12-31T04:22:22.050Z,1001.74
2017-12-31T04:22:47.619Z,1001.69
2017-12-31T04:23:13.176Z,1001.72
2017-12-31T04:23:38.853Z,1001.67
2017-12-31T04:24:04.418Z,1001.7
2017-12-31T04:24:29.970Z,1001.73
2017-12-31T04:24:55.546Z,1001.72
2017-12-31T04:25:21.099Z,1001.7
2017-12-31T04:25:46.655Z,1001.7
2017-12-31T04:26:12.243Z,1001.71
2017-12-31T04:26:37.785Z,1001.74
2017-12-31T04:27:03.342Z,1001.71
2017-12-31T04:27:28.922Z,1001.71
2017-12-31T04:27:54.477Z,1001.75
2017-12-31T04:28:20.027Z,1001.75
2017-12-31T04:28:45.589Z,1001.8
2017-12-31T04:29:11.140Z,1001.75
2017-12-31T04:29:36.698Z,1001.78
2017-12-31T04:30:02.269Z,1001.79
2017-12-31T04:30:27.851Z,1001.73
2017-12-31T04:30:53.435Z,1001.73
2017-12-31T04:31:18.997Z,1001.73
2017-12-31T04:31:44.532Z,1001.72
2017-12-31T04:32:10.096Z,1001.74
2017-12-31T04:32:35.658Z,1001.71
2017-12-31T04:33:01.236Z,1001.72
2017-12-31T04:33:26.833Z,1001.73
2017-12-31T04:33:52.417Z,1001.73
2017-12-31T04:34:17.996Z,1001.72
2017-12-31T04:34:43.547Z,1001.68
2017-12-31T04:35:09.111Z,1001.67
2017-12-31T04:35:34.667Z,1001.67
2017-12-31T04:36:00.282Z,1001.69
2017-12-31T04:36:25.901Z,1001.63
2017-12-31T04:36:51.464Z,1001.6
2017-12-31T04:37:17.026Z,1001.59
2017-12-31T04:37:42.651Z,1001.59
2017-12-31T04:38:08.206Z,1001.57
2017-12-31T04:38:33.763Z,1001.55
2017-12-31T04:38:59.321Z,1001.56
2017-12-31T04:39:24.885Z,1001.56
2017-12-31T04:39:50.437Z,1001.55
2017-12-31T04:40:15.995Z,1001.51
2017-12-31T04:40:41.551Z,1001.6
2017-12-31T04:41:07.144Z,1001.56
2017-12-31T04:41:32.703Z,1001.58
2017-12-31T04:41:58.323Z,1001.6
2017-12-31T04:42:23.873Z,1001.65
2017-12-31T04:42:49.454Z,1001.61
2017-12-31T04:43:14.999Z,1001.63
2017-12-31T04:43:40.586Z,1001.66
2017-12-31T04:44:06.141Z,1001.62
2017-12-31T04:44:31.712Z,1001.61
2017-12-31T04:44:57.269Z,1001.65
2017-12-31T04:45:22.912Z,1001.65
2017-12-31T04:45:48.480Z,1001.58
2017-12-31T04:46:14.081Z,1001.61
2017-12-31T04:46:39.758Z,1001.58
2017-12-31T04:47:05.357Z,1001.57
2017-12-31T04:47:30.933Z,1001.58
2017-12-31T04:47:56.492Z,1001.55
2017-12-31T04:48:22.048Z,1001.61
2017-12-31T04:48:47.598Z,1001.54
2017-12-31T04:49:13.159Z,1001.56
2017-12-31T04:49:38.782Z,1001.59
2017-12-31T04:50:04.399Z,1001.58
2017-12-31T04:50:29.953Z,1001.6
2017-12-31T04:50:55.509Z,1001.54
2017-12-31T04:51:21.066Z,1001.55
2017-12-31T04:51:46.629Z,1001.54
2017-12-31T04:52:12.275Z,1001.54
2017-12-31T04:52:37.845Z,1001.54
2017-12-31T04:53:03.398Z,1001.54
2017-12-31T04:53:29.025Z,1001.61
2017-12-31T04:53:54.640Z,1001.62
2017-12-31T04:54:20.175Z,1001.65
2017-12-31T04:54:45.752Z,1001.63
2017-12-31T04:55:11.352Z,1001.68
2017-12-31T04:55:36.927Z,1001.68
2017-12-31T04:56:02.477Z,1001.71
2017-12-31T04:56:28.050Z,1001.73
2017-12-31T04:56:53.626Z,1001.69
2017-12-31T04:57:19.214Z,1001.71
2017-12-31T04:57:44.774Z,1001.76
2017-12-31T04:58:10.335Z,1001.75
2017-12-31T04:58:35.935Z,1001.77
2017-12-31T04:59:01.497Z,1001.72
2017-12-31T04:59:27.062Z,1001.74
2017-12-31T04:59:52.724Z,1001.73
2017-12-31T05:00:18.278Z,1001.74
2017-12-31T05:00:43.836Z,1001.75
2017-12-31T05:01:09.397Z,1001.74
2017-12-31T05:01:34.996Z,1001.71
2017-12-31T05:02:00.568Z,1001.71
2017-12-31T05:02:26.119Z,1001.73
2017-12-31T05:02:51.760Z,1001.73
2017-12-31T05:03:17.323Z,1001.7
2017-12-31T05:03:42.873Z,1001.69
2017-12-31T05:04:08.483Z,1001.66
2017-12-31T05:04:34.123Z,1001.65
2017-12-31T05:04:59.604Z,1001.64
2017-12-31T05:05:25.168Z,1001.62
2017-12-31T05:05:50.734Z,1001.63
2017-12-31T05:06:16.309Z,1001.67
2017-12-31T05:06:41.934Z,1001.62
2017-12-31T05:07:07.490Z,1001.64
2017-12-31T05:07:33.115Z,1001.62
2017-12-31T05:07:58.739Z,1001.65
2017-12-31T05:08:24.311Z,1001.63
2017-12-31T05:08:49.889Z,1001.63
2017-12-31T05:09:15.447Z,1001.64
2017-12-31T05:09:41.143Z,1001.65
2017-12-31T05:10:06.746Z,1001.6
2017-12-31T05:10:32.364Z,1001.62
2017-12-31T05:10:58.806Z,1001.61
2017-12-31T05:11:24.357Z,1001.6
2017-12-31T05:11:50.192Z,1001.61
2017-12-31T05:12:15.801Z,1001.62